Koszta, Iowa
Current Conditions -  °F | °C
As of 8:35 AM on Thursday 29 Jan 2015 (Local Time) from KVTI Reporting Station
Haze Haze  
Wind Chill: 27°   Ceiling: 1300
Heat Index: 35°   Visibility: 5mi
Dew Point: 32°   Wind: 10mph
Humidity: 87%   Direction: 330°NNW
Pressure: 30.04"   Gusts: 17mph
Location:  41.9061°N, 92.1836°W
Report Text: KVTI 291435Z AUTO 33009G15KT 5SM BR SCT003 BKN013 02/00 A3004 RMK AO2 T00171002
Loading
Personal Weather Stations






























Interactive Weather Map New forecast layout! Learn more

10-Day Weather Forecast

Advertisements
Track Severe Weather on mobile